Terminal Aerodrome Forecast
Issued by NWS Charleston, WV

Current Version | Previous Version | Text Only | Print | Product List | Glossary Off
Versions: 1 2 3 4 5 6 7 8 9 10 11 12 13 14 15 16 17 18 19 20 21 22 23 24 25 26 27 28 29 30

000
FTUS41 KRLX 172100 AAA
TAFEKN
TAF AMD
KEKN 172109Z 1721/1818 23011G19KT P6SM FEW070
     FM172300 24008KT P6SM BKN050
     FM180200 27008KT P6SM BKN040
     FM180800 27007KT P6SM BKN025
     FM181500 28011G19KT P6SM OVC015=

USA.gov is the U.S. government's official web portal to all federal, state and local government web resources and services.